PWSweather.com
Personal Weather Stations
Station Observations
PWSLORIS
The Farm At Fox Bay, Loris, SC 29569

The Farm At Fox BayLoris, SC 29569

Lat: 34.067097, Lon: -78.86907

Elevation: 108

Station Type: Davis Vantage Pro2 with 24 hr. FARS and solar

http://www.lorisweather.com

High Low Average
Temperature 89.0°F31.7°C 69.5°F20.8°C 79.2°F26.2°C
Dew Point 77.9°F25.5°C 68.9°F20.5°C 74.1°F23.4°C
Winds 6.9 mph 11.1 kmh Calm Calm 1.0 mph SE1.6 kmh SE
Wind Gusts 10.4 mph16.7 kmh -- 2.0 mph3.2 kmh
Humidity 99% 66% 86%
Pressure 30.07 in1018.3 mb 29.93 in1013.5 mb -
Precipitation 0.00 in0.0 mm - -
Hour Temp Dew Point Humidity Winds Wind Gusts Pressure Precip Precip Rate Daily Precip Total
12:00 AM 70.9°F21.6°C 70.3°F21.3°C 98% Calm Calm -- 30.07 in1018.3 mb - 0.00 in0.0 mm 0.00 in0.0 mm
12:15 AM 70.9°F21.6°C 70.3°F21.3°C 98% Calm Calm -- 30.07 in1018.3 mb - 0.00 in0.0 mm 0.00 in0.0 mm
12:30 AM 70.6°F21.4°C 70.0°F21.1°C 98% Calm Calm -- 30.07 in1018.3 mb - 0.00 in0.0 mm 0.00 in0.0 mm
12:45 AM 70.4°F21.3°C 69.8°F21.0°C 98% Calm Calm -- 30.07 in1018.3 mb - 0.00 in0.0 mm 0.00 in0.0 mm
01:00 AM 70.3°F21.3°C 69.7°F20.9°C 98% Calm Calm -- 30.06 in1017.9 mb - 0.00 in0.0 mm 0.00 in0.0 mm
01:15 AM 70.1°F21.2°C 69.5°F20.8°C 98% Calm Calm -- 30.06 in1017.9 mb - 0.00 in0.0 mm 0.00 in0.0 mm
01:30 AM 70.2°F21.2°C 69.6°F20.9°C 98% Calm Calm -- 30.06 in1017.9 mb - 0.00 in0.0 mm 0.00 in0.0 mm
01:45 AM 70.2°F21.2°C 69.6°F20.9°C 98% Calm Calm -- 30.06 in1017.9 mb - 0.00 in0.0 mm 0.00 in0.0 mm
02:00 AM 70.2°F21.2°C 69.6°F20.9°C 98% Calm Calm -- 30.06 in1017.9 mb - 0.00 in0.0 mm 0.00 in0.0 mm
02:15 AM 70.1°F21.2°C 69.5°F20.8°C 98% Calm Calm -- 30.05 in1017.6 mb - 0.00 in0.0 mm 0.00 in0.0 mm
02:30 AM 70.2°F21.2°C 69.6°F20.9°C 98% Calm Calm -- 30.05 in1017.6 mb - 0.00 in0.0 mm 0.00 in0.0 mm
02:45 AM 70.2°F21.2°C 69.6°F20.9°C 98% Calm Calm -- 30.05 in1017.6 mb - 0.00 in0.0 mm 0.00 in0.0 mm
03:00 AM 70.3°F21.3°C 69.7°F20.9°C 98% Calm Calm -- 30.05 in1017.6 mb - 0.00 in0.0 mm 0.00 in0.0 mm
03:15 AM 70.1°F21.2°C 69.5°F20.8°C 98% Calm Calm -- 30.05 in1017.6 mb - 0.00 in0.0 mm 0.00 in0.0 mm
03:30 AM 69.9°F21.1°C 69.3°F20.7°C 98% Calm Calm -- 30.05 in1017.6 mb - 0.00 in0.0 mm 0.00 in0.0 mm
03:45 AM 69.7°F20.9°C 69.1°F20.6°C 98% Calm Calm -- 30.05 in1017.6 mb - 0.00 in0.0 mm 0.00 in0.0 mm
04:00 AM 69.5°F20.8°C 68.9°F20.5°C 98% Calm Calm -- 30.05 in1017.6 mb - 0.00 in0.0 mm 0.00 in0.0 mm
04:15 AM 69.5°F20.8°C 68.9°F20.5°C 98% Calm Calm -- 30.06 in1017.9 mb - 0.00 in0.0 mm 0.00 in0.0 mm
04:30 AM 70.1°F21.2°C 69.5°F20.8°C 98% Calm Calm -- 30.06 in1017.9 mb - 0.00 in0.0 mm 0.00 in0.0 mm
04:45 AM 70.1°F21.2°C 69.5°F20.8°C 98% Calm Calm -- 30.06 in1017.9 mb - 0.00 in0.0 mm 0.00 in0.0 mm
05:00 AM 69.8°F21.0°C 69.2°F20.7°C 98% Calm Calm -- 30.06 in1017.9 mb - 0.00 in0.0 mm 0.00 in0.0 mm
05:15 AM 69.8°F21.0°C 69.2°F20.7°C 98% Calm Calm -- 30.06 in1017.9 mb - 0.00 in0.0 mm 0.00 in0.0 mm
05:30 AM 69.7°F20.9°C 69.1°F20.6°C 98% Calm Calm -- 30.05 in1017.6 mb - 0.00 in0.0 mm 0.00 in0.0 mm
05:45 AM 69.7°F20.9°C 69.1°F20.6°C 98% Calm Calm -- 30.05 in1017.6 mb - 0.00 in0.0 mm 0.00 in0.0 mm
06:00 AM 70.1°F21.2°C 69.5°F20.8°C 98% Calm Calm -- 30.05 in1017.6 mb - 0.00 in0.0 mm 0.00 in0.0 mm
06:15 AM 70.8°F21.6°C 70.5°F21.4°C 99% Calm Calm -- 30.04 in1017.3 mb - 0.00 in0.0 mm 0.00 in0.0 mm
06:30 AM 72.2°F22.3°C 71.9°F22.2°C 99% Calm Calm -- 30.05 in1017.6 mb - 0.00 in0.0 mm 0.00 in0.0 mm
06:45 AM 73.4°F23.0°C 72.8°F22.7°C 98% Calm Calm -- 30.05 in1017.6 mb - 0.00 in0.0 mm 0.00 in0.0 mm
07:00 AM 74.9°F23.8°C 74.0°F23.3°C 97% Calm Calm -- 30.06 in1017.9 mb - 0.00 in0.0 mm 0.00 in0.0 mm
07:15 AM 76.0°F24.4°C 74.5°F23.6°C 95% Calm Calm -- 30.06 in1017.9 mb - 0.00 in0.0 mm 0.00 in0.0 mm
07:30 AM 77.3°F25.2°C 75.1°F23.9°C 93% Calm Calm -- 30.06 in1017.9 mb - 0.00 in0.0 mm 0.00 in0.0 mm
07:45 AM 79.1°F26.2°C 76.2°F24.6°C 91% Calm Calm -- 30.06 in1017.9 mb - 0.00 in0.0 mm 0.00 in0.0 mm
08:00 AM 80.3°F26.8°C 76.4°F24.7°C 88% 2.3 mph SSE3.7 kmh SSE 4.6 mph7.4 kmh 30.06 in1017.9 mb - 0.00 in0.0 mm 0.00 in0.0 mm
08:15 AM 81.2°F27.3°C 77.0°F25.0°C 87% 2.3 mph SE3.7 kmh SE 3.5 mph5.6 kmh 30.06 in1017.9 mb - 0.00 in0.0 mm 0.00 in0.0 mm
08:30 AM 81.9°F27.7°C 76.9°F24.9°C 85% 2.3 mph SSE3.7 kmh SSE 3.5 mph5.6 kmh 30.06 in1017.9 mb - 0.00 in0.0 mm 0.00 in0.0 mm
08:45 AM 82.6°F28.1°C 77.6°F25.3°C 85% 1.2 mph SE1.9 kmh SE 6.9 mph11.1 kmh 30.06 in1017.9 mb - 0.00 in0.0 mm 0.00 in0.0 mm
09:00 AM 83.4°F28.6°C 77.0°F25.0°C 81% 1.2 mph S1.9 kmh S 3.5 mph5.6 kmh 30.06 in1017.9 mb - 0.00 in0.0 mm 0.00 in0.0 mm
09:15 AM 83.8°F28.8°C 77.3°F25.2°C 81% Calm Calm -- 30.06 in1017.9 mb - 0.00 in0.0 mm 0.00 in0.0 mm
09:30 AM 82.7°F28.2°C 76.2°F24.6°C 81% Calm Calm -- 30.06 in1017.9 mb - 0.00 in0.0 mm 0.00 in0.0 mm
09:45 AM 83.0°F28.3°C 76.2°F24.6°C 80% Calm Calm -- 30.06 in1017.9 mb - 0.00 in0.0 mm 0.00 in0.0 mm
10:00 AM 85.1°F29.5°C 77.1°F25.1°C 77% Calm Calm -- 30.06 in1017.9 mb - 0.00 in0.0 mm 0.00 in0.0 mm
10:15 AM 86.0°F30.0°C 77.5°F25.3°C 76% Calm Calm 3.5 mph5.6 kmh 30.05 in1017.6 mb - 0.00 in0.0 mm 0.00 in0.0 mm
10:30 AM 86.5°F30.3°C 77.3°F25.2°C 74% 4.6 mph SSE7.4 kmh SSE 9.2 mph14.8 kmh 30.04 in1017.3 mb - 0.00 in0.0 mm 0.00 in0.0 mm
10:45 AM 86.8°F30.4°C 76.6°F24.8°C 72% 3.5 mph SE5.6 kmh SE 4.6 mph7.4 kmh 30.04 in1017.3 mb - 0.00 in0.0 mm 0.00 in0.0 mm
11:00 AM 86.9°F30.5°C 77.2°F25.1°C 73% 2.3 mph SE3.7 kmh SE 3.5 mph5.6 kmh 30.03 in1016.9 mb - 0.00 in0.0 mm 0.00 in0.0 mm
11:15 AM 87.6°F30.9°C 76.2°F24.6°C 69% 4.6 mph S7.4 kmh S 5.8 mph9.3 kmh 30.02 in1016.6 mb - 0.00 in0.0 mm 0.00 in0.0 mm
11:30 AM 87.7°F30.9°C 76.3°F24.6°C 69% 6.9 mph SSE11.1 kmh SSE 6.9 mph11.1 kmh 30.02 in1016.6 mb - 0.00 in0.0 mm 0.00 in0.0 mm
11:45 AM 87.2°F30.7°C 76.7°F24.8°C 71% 5.8 mph SSE9.3 kmh SSE 9.2 mph14.8 kmh 30.01 in1016.3 mb - 0.00 in0.0 mm 0.00 in0.0 mm
12:00 PM 86.6°F30.3°C 76.5°F24.7°C 72% 2.3 mph S3.7 kmh S 3.5 mph5.6 kmh 30.00 in1015.9 mb - 0.00 in0.0 mm 0.00 in0.0 mm
12:15 PM 87.7°F30.9°C 77.1°F25.1°C 71% 5.8 mph SSE9.3 kmh SSE 8.1 mph13.0 kmh 30.00 in1015.9 mb - 0.00 in0.0 mm 0.00 in0.0 mm
12:30 PM 88.5°F31.4°C 77.9°F25.5°C 71% 3.5 mph S5.6 kmh S 6.9 mph11.1 kmh 30.00 in1015.9 mb - 0.00 in0.0 mm 0.00 in0.0 mm
12:45 PM 88.4°F31.3°C 76.9°F24.9°C 69% 4.6 mph SSE7.4 kmh SSE 6.9 mph11.1 kmh 29.99 in1015.6 mb - 0.00 in0.0 mm 0.00 in0.0 mm
01:00 PM 86.9°F30.5°C 76.4°F24.7°C 71% 1.2 mph SE1.9 kmh SE 6.9 mph11.1 kmh 29.99 in1015.6 mb - 0.00 in0.0 mm 0.00 in0.0 mm
01:15 PM 86.5°F30.3°C 76.0°F24.4°C 71% 2.3 mph SE3.7 kmh SE 5.8 mph9.3 kmh 29.98 in1015.2 mb - 0.00 in0.0 mm 0.00 in0.0 mm
01:30 PM 86.1°F30.1°C 76.4°F24.7°C 73% 2.3 mph SE3.7 kmh SE 3.5 mph5.6 kmh 29.98 in1015.2 mb - 0.00 in0.0 mm 0.00 in0.0 mm
01:45 PM 88.6°F31.4°C 77.1°F25.1°C 69% 1.2 mph S1.9 kmh S 3.5 mph5.6 kmh 29.97 in1014.9 mb - 0.00 in0.0 mm 0.00 in0.0 mm
02:00 PM 88.6°F31.4°C 75.8°F24.3°C 66% 1.2 mph S1.9 kmh S 2.3 mph3.7 kmh 29.97 in1014.9 mb - 0.00 in0.0 mm 0.00 in0.0 mm
02:15 PM 89.0°F31.7°C 76.1°F24.5°C 66% 3.5 mph S5.6 kmh S 6.9 mph11.1 kmh 29.97 in1014.9 mb - 0.00 in0.0 mm 0.00 in0.0 mm
02:30 PM 87.7°F30.9°C 75.8°F24.3°C 68% 2.3 mph S3.7 kmh S 4.6 mph7.4 kmh 29.97 in1014.9 mb - 0.00 in0.0 mm 0.00 in0.0 mm
02:45 PM 88.5°F31.4°C 77.5°F25.3°C 70% 1.2 mph SSE1.9 kmh SSE 6.9 mph11.1 kmh 29.96 in1014.6 mb - 0.00 in0.0 mm 0.00 in0.0 mm
03:00 PM 88.3°F31.3°C 76.4°F24.7°C 68% 2.3 mph SSE3.7 kmh SSE 4.6 mph7.4 kmh 29.96 in1014.6 mb - 0.00 in0.0 mm 0.00 in0.0 mm
03:15 PM 87.7°F30.9°C 75.0°F23.9°C 66% 3.5 mph S5.6 kmh S 3.5 mph5.6 kmh 29.95 in1014.2 mb - 0.00 in0.0 mm 0.00 in0.0 mm
03:30 PM 89.0°F31.7°C 76.1°F24.5°C 66% 5.8 mph SE9.3 kmh SE 6.9 mph11.1 kmh 29.95 in1014.2 mb - 0.00 in0.0 mm 0.00 in0.0 mm
03:45 PM 88.2°F31.2°C 76.3°F24.6°C 68% 4.6 mph SSE7.4 kmh SSE 5.8 mph9.3 kmh 29.94 in1013.9 mb - 0.00 in0.0 mm 0.00 in0.0 mm
04:00 PM 88.4°F31.3°C 76.5°F24.7°C 68% 5.8 mph SSE9.3 kmh SSE 10.4 mph16.7 kmh 29.95 in1014.2 mb - 0.00 in0.0 mm 0.00 in0.0 mm
04:15 PM 86.7°F30.4°C 75.4°F24.1°C 69% 3.5 mph SSW5.6 kmh SSW 6.9 mph11.1 kmh 29.95 in1014.2 mb - 0.00 in0.0 mm 0.00 in0.0 mm
04:30 PM 86.6°F30.3°C 75.2°F24.0°C 69% 3.5 mph S5.6 kmh S 5.8 mph9.3 kmh 29.95 in1014.2 mb - 0.00 in0.0 mm 0.00 in0.0 mm
04:45 PM 87.1°F30.6°C 75.7°F24.3°C 69% 3.5 mph SSE5.6 kmh SSE 4.6 mph7.4 kmh 29.94 in1013.9 mb - 0.00 in0.0 mm 0.00 in0.0 mm
05:00 PM 86.8°F30.4°C 77.1°F25.1°C 73% 2.3 mph S3.7 kmh S 4.6 mph7.4 kmh 29.94 in1013.9 mb - 0.00 in0.0 mm 0.00 in0.0 mm
05:15 PM 85.8°F29.9°C 77.0°F25.0°C 75% 2.3 mph S3.7 kmh S 8.1 mph13.0 kmh 29.94 in1013.9 mb - 0.00 in0.0 mm 0.00 in0.0 mm
05:30 PM 85.1°F29.5°C 76.7°F24.8°C 76% 3.5 mph SSE5.6 kmh SSE 6.9 mph11.1 kmh 29.94 in1013.9 mb - 0.00 in0.0 mm 0.00 in0.0 mm
05:45 PM 84.3°F29.1°C 76.7°F24.8°C 78% 3.5 mph S5.6 kmh S 4.6 mph7.4 kmh 29.94 in1013.9 mb - 0.00 in0.0 mm 0.00 in0.0 mm
06:00 PM 83.6°F28.7°C 76.4°F24.7°C 79% 2.3 mph S3.7 kmh S 3.5 mph5.6 kmh 29.93 in1013.5 mb - 0.00 in0.0 mm 0.00 in0.0 mm
06:15 PM 82.9°F28.3°C 76.5°F24.7°C 81% 3.5 mph S5.6 kmh S 9.2 mph14.8 kmh 29.93 in1013.5 mb - 0.00 in0.0 mm 0.00 in0.0 mm
06:30 PM 82.3°F27.9°C 75.9°F24.4°C 81% 3.5 mph S5.6 kmh S 8.1 mph13.0 kmh 29.93 in1013.5 mb - 0.00 in0.0 mm 0.00 in0.0 mm
06:45 PM 81.6°F27.6°C 75.9°F24.4°C 83% 2.3 mph S3.7 kmh S 3.5 mph5.6 kmh 29.93 in1013.5 mb - 0.00 in0.0 mm 0.00 in0.0 mm
07:00 PM 81.0°F27.2°C 75.7°F24.3°C 84% Calm Calm 3.5 mph5.6 kmh 29.93 in1013.5 mb - 0.00 in0.0 mm 0.00 in0.0 mm
07:15 PM 80.5°F26.9°C 75.2°F24.0°C 84% Calm Calm 3.5 mph5.6 kmh 29.93 in1013.5 mb - 0.00 in0.0 mm 0.00 in0.0 mm
07:30 PM 80.0°F26.7°C 75.4°F24.1°C 86% Calm Calm -- 29.94 in1013.9 mb - 0.00 in0.0 mm 0.00 in0.0 mm
07:45 PM 79.5°F26.4°C 75.3°F24.1°C 87% Calm Calm -- 29.94 in1013.9 mb - 0.00 in0.0 mm 0.00 in0.0 mm
08:00 PM 78.9°F26.1°C 75.0°F23.9°C 88% Calm Calm -- 29.94 in1013.9 mb - 0.00 in0.0 mm 0.00 in0.0 mm
08:15 PM 77.8°F25.4°C 74.6°F23.7°C 90% Calm Calm -- 29.94 in1013.9 mb - 0.00 in0.0 mm 0.00 in0.0 mm
08:30 PM 78.0°F25.6°C 75.1°F23.9°C 91% Calm Calm -- 29.94 in1013.9 mb - 0.00 in0.0 mm 0.00 in0.0 mm
08:45 PM 77.8°F25.4°C 75.0°F23.9°C 91% Calm Calm -- 29.95 in1014.2 mb - 0.00 in0.0 mm 0.00 in0.0 mm
09:00 PM 77.6°F25.3°C 74.8°F23.8°C 91% Calm Calm -- 29.95 in1014.2 mb - 0.00 in0.0 mm 0.00 in0.0 mm
09:15 PM 77.3°F25.2°C 74.4°F23.6°C 91% Calm Calm -- 29.95 in1014.2 mb - 0.00 in0.0 mm 0.00 in0.0 mm
09:30 PM 76.8°F24.9°C 74.3°F23.5°C 92% Calm Calm -- 29.95 in1014.2 mb - 0.00 in0.0 mm 0.00 in0.0 mm
09:45 PM 76.5°F24.7°C 74.3°F23.5°C 93% Calm Calm -- 29.95 in1014.2 mb - 0.00 in0.0 mm 0.00 in0.0 mm
10:00 PM 76.0°F24.4°C 73.9°F23.3°C 93% Calm Calm -- 29.95 in1014.2 mb - 0.00 in0.0 mm 0.00 in0.0 mm
10:15 PM 75.6°F24.2°C 74.1°F23.4°C 95% Calm Calm -- 29.95 in1014.2 mb - 0.00 in0.0 mm 0.00 in0.0 mm
10:30 PM 75.3°F24.1°C 73.7°F23.2°C 95% Calm Calm -- 29.95 in1014.2 mb - 0.00 in0.0 mm 0.00 in0.0 mm
10:45 PM 75.3°F24.1°C 74.1°F23.4°C 96% Calm Calm -- 29.94 in1013.9 mb - 0.00 in0.0 mm 0.00 in0.0 mm
11:00 PM 75.2°F24.0°C 74.0°F23.3°C 96% Calm Calm -- 29.93 in1013.5 mb - 0.00 in0.0 mm 0.00 in0.0 mm
11:15 PM 75.1°F23.9°C 73.9°F23.3°C 96% Calm Calm -- 29.94 in1013.9 mb - 0.00 in0.0 mm 0.00 in0.0 mm
11:30 PM 75.3°F24.1°C 74.1°F23.4°C 96% Calm Calm -- 29.94 in1013.9 mb - 0.00 in0.0 mm 0.00 in0.0 mm
11:45 PM 75.3°F24.1°C 74.1°F23.4°C 96% Calm Calm -- 29.93 in1013.5 mb - 0.00 in0.0 mm 0.00 in0.0 mm